Time;durP1;ratioP1;P1;durP2;ratioP2;P2;SDS_P1;SDS_P2;PMS_P1;PMS_P2;Temp;Humidity;BMP_temperature;BMP_pressure;BME280_temperature;BME280_humidity;BME280_pressure;Samples;Min_cycle;Max_cycle;Signal;HPM_P1;HPM_P2
2023/09/18 00:00:58;;;;;;;;;;;;;;;24.12;53.03;101421.34;7397803;19;1220;-37
2023/09/18 00:03:26;;;;;;;;;;;;;;;24.09;52.66;101417.09;7396380;19;1875;-37
2023/09/18 00:05:55;;;;;;;;;;;;;;;24.13;52.93;101418.50;7397966;19;1247;-37
2023/09/18 00:08:23;;;;;;;;;;;;;;;24.05;53.00;101425.66;7397863;19;1806;-37
2023/09/18 00:10:53;;;;;;;;;;;;;;;24.01;52.85;101425.09;7396924;19;1834;-37
2023/09/18 00:13:21;;;;;;;;;;;;;;;24.01;53.00;101420.56;7397975;19;1760;-37
2023/09/18 00:15:51;;;;;;;;;;;;;;;23.91;52.89;101418.94;7396576;19;1456;-37
2023/09/18 00:18:22;;;;;;;;;;;;;;;24.06;52.79;101412.00;7396093;19;1511;-37
2023/09/18 00:20:51;;;;;;;;;;;;;;;24.02;52.78;101399.81;7395800;19;1710;-37
2023/09/18 00:23:20;;;;;;;;;;;;;;;23.96;52.66;101419.34;7396561;19;1480;-37
2023/09/18 00:25:48;;;;;;;;;;;;;;;23.92;52.68;101417.94;7395730;19;1828;-37
2023/09/18 00:28:16;;;;;;;;;;;;;;;23.94;52.89;101422.19;7398631;19;1748;-37
2023/09/18 00:30:49;;;;;;;;;;;;;;;24.02;52.88;101424.13;7397453;19;1845;-37
2023/09/18 00:33:19;;;;;;;;;;;;;;;24.06;52.96;101408.47;7395141;19;1659;-37
2023/09/18 00:35:50;;;;;;;;;;;;;;;24.07;52.74;101407.44;7396731;19;1597;-37
2023/09/18 00:38:19;;;;;;;;;;;;;;;24.01;52.23;101420.56;7396903;19;1628;-37
2023/09/18 00:40:47;;;;;;;;;;;;;;;23.95;52.45;101426.56;7397332;19;1458;-37
2023/09/18 00:43:17;;;;;;;;;;;;;;;23.90;52.17;101436.16;7398185;19;1558;-37
2023/09/18 00:45:47;;;;;;;;;;;;;;;23.86;52.29;101421.25;7396966;19;1510;-37
2023/09/18 00:48:17;;;;;;;;;;;;;;;23.89;52.11;101404.72;7395530;19;1886;-37
2023/09/18 00:50:46;;;;;;;;;;;;;;;23.71;52.21;101424.41;7395376;19;1901;-37
2023/09/18 00:53:20;;;;;;;;;;;;;;;23.81;52.05;101419.84;7396677;19;1828;-37
2023/09/18 00:55:49;;;;;;;;;;;;;;;23.80;52.16;101418.13;7392935;19;1792;-37
2023/09/18 00:58:17;;;;;;;;;;;;;;;23.70;51.98;101424.59;7396484;19;1417;-37
2023/09/18 01:00:50;;;;;;;;;;;;;;;23.61;52.34;101429.84;7393044;19;1756;-37
2023/09/18 01:03:19;;;;;;;;;;;;;;;23.65;52.14;101425.00;7395380;19;1747;-49
2023/09/18 01:05:47;;;;;;;;;;;;;;;23.67;52.81;101424.88;7396315;19;1556;-37
2023/09/18 01:08:18;;;;;;;;;;;;;;;23.76;52.47;101422.13;7394219;19;1518;-37
2023/09/18 01:10:52;;;;;;;;;;;;;;;23.77;52.02;101417.56;7393640;19;1864;-37
2023/09/18 01:13:24;;;;;;;;;;;;;;;23.58;52.50;101427.47;7395413;19;1764;-37
2023/09/18 01:15:56;;;;;;;;;;;;;;;23.50;52.19;101430.06;7393381;19;1491;-36
2023/09/18 01:18:25;;;;;;;;;;;;;;;23.64;52.09;101417.94;7393251;19;1393;-37
2023/09/18 01:20:53;;;;;;;;;;;;;;;23.60;52.38;101411.13;7391982;19;1467;-37
2023/09/18 01:23:24;;;;;;;;;;;;;;;23.63;52.15;101416.22;7393712;19;1397;-37
2023/09/18 01:25:52;;;;;;;;;;;;;;;23.51;52.61;101412.03;7395658;19;1570;-37
2023/09/18 01:28:20;;;;;;;;;;;;;;;23.39;52.84;101398.72;7394495;19;1983;-37
2023/09/18 01:30:49;;;;;;;;;;;;;;;23.41;52.85;101407.50;7394756;19;1864;-37
2023/09/18 01:33:17;;;;;;;;;;;;;;;23.45;52.85;101401.81;7391817;19;1590;-37
2023/09/18 01:35:47;;;;;;;;;;;;;;;23.43;53.33;101407.38;7394315;19;1862;-37
2023/09/18 01:38:15;;;;;;;;;;;;;;;23.50;52.98;101416.56;7394454;19;1924;-62
2023/09/18 01:40:46;;;;;;;;;;;;;;;23.42;53.08;101409.22;7394044;19;1497;-37
2023/09/18 01:43:15;;;;;;;;;;;;;;;23.35;52.83;101415.34;7396300;19;1190;-37
2023/09/18 01:45:44;;;;;;;;;;;;;;;23.45;53.33;101412.63;7394915;19;1445;-37
2023/09/18 01:48:12;;;;;;;;;;;;;;;23.59;52.42;101414.81;7393655;19;1776;-36
2023/09/18 01:50:42;;;;;;;;;;;;;;;23.51;52.51;101417.41;7394568;19;1566;-37
2023/09/18 01:53:11;;;;;;;;;;;;;;;23.47;52.58;101418.72;7391819;19;1855;-37
2023/09/18 01:55:39;;;;;;;;;;;;;;;23.50;52.25;101418.44;7394686;19;1623;-43
2023/09/18 01:58:10;;;;;;;;;;;;;;;23.40;52.41;101419.31;7394836;19;1506;-37
2023/09/18 02:00:38;;;;;;;;;;;;;;;23.39;52.45;101427.56;7392222;19;1458;-37
2023/09/18 02:03:07;;;;;;;;;;;;;;;23.35;52.41;101424.28;7392747;19;1555;-37
2023/09/18 02:05:36;;;;;;;;;;;;;;;23.30;52.49;101417.63;7394027;19;1350;-37
2023/09/18 02:08:05;;;;;;;;;;;;;;;23.27;52.82;101436.84;7393375;19;1520;-37
2023/09/18 02:10:33;;;;;;;;;;;;;;;23.32;52.49;101438.09;7394422;19;1558;-37
2023/09/18 02:13:01;;;;;;;;;;;;;;;23.33;52.66;101434.38;7393446;19;1847;-37
2023/09/18 02:15:35;;;;;;;;;;;;;;;23.36;52.48;101434.09;7392988;19;1617;-37
2023/09/18 02:18:03;;;;;;;;;;;;;;;23.35;52.29;101423.44;7393635;19;1725;-37
2023/09/18 02:20:31;;;;;;;;;;;;;;;23.36;52.28;101436.81;7394002;19;1482;-37
2023/09/18 02:22:59;;;;;;;;;;;;;;;23.30;52.25;101442.81;7393816;19;1560;-37
2023/09/18 02:25:28;;;;;;;;;;;;;;;22.73;52.15;101348.38;7394011;19;1680;-37
2023/09/18 02:27:56;;;;;;;;;;;;;;;23.25;52.59;101449.63;7394791;19;1585;-37
2023/09/18 02:30:25;;;;;;;;;;;;;;;23.25;52.33;101455.03;7394603;19;1477;-37
2023/09/18 02:32:56;;;;;;;;;;;;;;;23.28;51.92;101441.22;7389577;19;1835;-37
2023/09/18 02:35:24;;;;;;;;;;;;;;;23.23;52.17;101434.41;7392378;19;1476;-37
2023/09/18 02:37:52;;;;;;;;;;;;;;;23.32;51.83;101448.06;7394485;19;1537;-37
2023/09/18 02:40:20;;;;;;;;;;;;;;;23.29;51.77;101445.63;7394227;19;1863;-37
2023/09/18 02:42:49;;;;;;;;;;;;;;;23.22;52.18;101445.38;7393865;19;1811;-37
2023/09/18 02:45:17;;;;;;;;;;;;;;;23.26;51.74;101449.50;7397788;19;1843;-37
2023/09/18 02:47:45;;;;;;;;;;;;;;;23.32;51.71;101445.34;7398854;19;1337;-37
2023/09/18 02:50:16;;;;;;;;;;;;;;;23.34;52.03;101456.84;7400237;19;1926;-37
2023/09/18 02:52:45;;;;;;;;;;;;;;;23.43;51.02;101464.88;7398574;19;1841;-37
2023/09/18 02:55:13;;;;;;;;;;;;;;;23.36;51.83;101466.50;7401878;19;1389;-38
2023/09/18 02:57:41;;;;;;;;;;;;;;;23.30;51.67;101453.59;7400595;19;1709;-38
2023/09/18 03:00:11;;;;;;;;;;;;;;;23.35;51.14;101459.38;7398906;19;1914;-37
2023/09/18 03:02:39;;;;;;;;;;;;;;;23.20;51.44;101458.19;7399713;19;1617;-37
2023/09/18 03:05:08;;;;;;;;;;;;;;;22.64;51.53;101370.81;7401552;19;1421;-38
2023/09/18 03:07:39;;;;;;;;;;;;;;;23.19;51.43;101451.06;7400930;19;1583;-37
2023/09/18 03:10:13;;;;;;;;;;;;;;;23.13;51.71;101459.75;7399168;19;1521;-37
2023/09/18 03:12:41;;;;;;;;;;;;;;;23.10;51.35;101458.19;7397312;19;1853;-42
2023/09/18 03:15:11;;;;;;;;;;;;;;;23.13;51.99;101463.28;7399744;19;1654;-37
2023/09/18 03:17:40;;;;;;;;;;;;;;;23.20;51.75;101471.66;7399310;19;1740;-37
2023/09/18 03:20:10;;;;;;;;;;;;;;;23.21;51.79;101476.06;7399888;19;1653;-37
2023/09/18 03:22:40;;;;;;;;;;;;;;;23.27;50.81;101466.53;7400269;19;1693;-37
2023/09/18 03:25:09;;;;;;;;;;;;;;;23.11;51.21;101464.44;7399777;19;1530;-37
2023/09/18 03:27:38;;;;;;;;;;;;;;;23.07;51.60;101469.25;7400371;19;1513;-37
2023/09/18 03:30:07;;;;;;;;;;;;;;;23.08;51.60;101470.97;7399375;19;1967;-38
2023/09/18 03:32:35;;;;;;;;;;;;;;;23.09;51.36;101477.22;7397310;19;1844;-37
2023/09/18 03:35:04;;;;;;;;;;;;;;;23.12;51.18;101487.72;7397257;19;1432;-37
2023/09/18 03:37:32;;;;;;;;;;;;;;;23.16;50.91;101481.91;7396989;19;1212;-37
2023/09/18 03:40:03;;;;;;;;;;;;;;;23.12;51.30;101482.31;7393142;19;1450;-37
2023/09/18 03:42:31;;;;;;;;;;;;;;;23.15;51.12;101476.63;7397702;19;2023;-37
2023/09/18 03:45:00;;;;;;;;;;;;;;;23.13;51.04;101478.63;7395692;19;1665;-37
2023/09/18 03:47:28;;;;;;;;;;;;;;;23.17;51.65;101485.44;7396506;19;1455;-37
2023/09/18 03:49:56;;;;;;;;;;;;;;;23.17;51.64;101480.88;7395534;19;1803;-37
2023/09/18 03:52:25;;;;;;;;;;;;;;;23.22;51.43;101480.47;7396833;19;1853;-37
2023/09/18 03:54:53;;;;;;;;;;;;;;;23.27;52.38;101478.16;7396781;19;1497;-37
2023/09/18 03:57:24;;;;;;;;;;;;;;;23.39;51.79;101485.06;7373986;19;1506;-41
2023/09/18 03:59:53;;;;;;;;;;;;;;;23.22;52.41;101488.56;7391807;19;1491;-42
2023/09/18 04:02:21;;;;;;;;;;;;;;;23.19;51.28;101495.06;7393636;19;1445;-42
2023/09/18 04:04:49;;;;;;;;;;;;;;;23.17;51.52;101496.22;7391217;19;1399;-42
2023/09/18 04:07:19;;;;;;;;;;;;;;;23.24;51.15;101521.66;7393193;19;1533;-37
2023/09/18 04:09:47;;;;;;;;;;;;;;;23.25;51.08;101506.31;7391109;19;1461;-37
2023/09/18 04:12:18;;;;;;;;;;;;;;;23.12;51.41;101509.28;7386772;19;1850;-37
2023/09/18 04:14:49;;;;;;;;;;;;;;;23.24;50.35;101502.75;7395404;19;1554;-38
2023/09/18 04:17:17;;;;;;;;;;;;;;;23.22;50.36;101507.44;7393042;19;1688;-37
2023/09/18 04:19:46;;;;;;;;;;;;;;;23.21;50.04;101497.63;7393699;19;1834;-38
2023/09/18 04:22:15;;;;;;;;;;;;;;;23.13;49.80;101506.44;7392451;19;1410;-38
2023/09/18 04:24:43;;;;;;;;;;;;;;;23.05;50.25;101510.88;7394441;19;1938;-38
2023/09/18 04:27:11;;;;;;;;;;;;;;;23.16;49.75;101505.34;7394012;19;1744;-38
2023/09/18 04:29:40;;;;;;;;;;;;;;;23.32;50.32;101507.44;7394680;19;1564;-38
2023/09/18 04:32:10;;;;;;;;;;;;;;;23.23;50.80;101503.75;7393455;19;1835;-38
2023/09/18 04:34:39;;;;;;;;;;;;;;;23.25;49.92;101509.84;7393547;19;1410;-37
2023/09/18 04:37:07;;;;;;;;;;;;;;;23.26;49.58;101495.38;7390326;19;1894;-37
2023/09/18 04:39:36;;;;;;;;;;;;;;;23.26;49.68;101500.75;7393411;19;1571;-38
2023/09/18 04:42:06;;;;;;;;;;;;;;;23.27;49.21;101512.41;7391534;19;1739;-38
2023/09/18 04:44:34;;;;;;;;;;;;;;;23.20;49.28;101517.53;7391663;19;1510;-38
2023/09/18 04:47:03;;;;;;;;;;;;;;;23.31;49.52;101500.31;7396560;19;1610;-38
2023/09/18 04:49:34;;;;;;;;;;;;;;;23.28;49.29;101519.47;7396219;19;1553;-38
2023/09/18 04:52:03;;;;;;;;;;;;;;;23.32;49.08;101516.38;7395884;19;1876;-38
2023/09/18 04:54:31;;;;;;;;;;;;;;;23.25;49.34;101504.44;7395989;19;1513;-38
2023/09/18 04:56:59;;;;;;;;;;;;;;;23.15;49.45;101519.81;7394983;19;1537;-38
2023/09/18 04:59:28;;;;;;;;;;;;;;;23.32;49.59;101526.31;7396839;19;1545;-38
2023/09/18 05:01:57;;;;;;;;;;;;;;;23.23;49.43;101514.53;7396237;19;1290;-38
2023/09/18 05:04:25;;;;;;;;;;;;;;;23.26;49.44;101527.75;7395186;19;1454;-38
2023/09/18 05:06:56;;;;;;;;;;;;;;;23.22;49.24;101512.84;7396145;19;1569;-38
2023/09/18 05:09:24;;;;;;;;;;;;;;;23.49;49.26;101520.13;7393182;19;1541;-38
2023/09/18 05:11:52;;;;;;;;;;;;;;;23.96;48.32;101519.28;7394093;19;1627;-38
2023/09/18 05:14:21;;;;;;;;;;;;;;;24.13;48.15;101526.59;7395927;19;1136;-38
2023/09/18 05:16:49;;;;;;;;;;;;;;;24.13;47.93;101509.50;7395754;19;1192;-38
2023/09/18 05:19:17;;;;;;;;;;;;;;;24.22;47.72;101495.94;7395659;19;1538;-38
2023/09/18 05:21:46;;;;;;;;;;;;;;;24.19;47.96;101520.56;7395353;19;1545;-38
2023/09/18 05:24:18;;;;;;;;;;;;;;;24.13;48.16;101507.69;7394547;19;1657;-38
2023/09/18 05:26:46;;;;;;;;;;;;;;;23.85;48.82;101516.78;7393786;19;1492;-38
2023/09/18 05:29:15;;;;;;;;;;;;;;;23.69;49.31;101512.81;7391556;19;1604;-38
2023/09/18 05:31:43;;;;;;;;;;;;;;;23.63;49.43;101513.41;7395542;19;1290;-38
2023/09/18 05:34:12;;;;;;;;;;;;;;;23.80;49.27;101514.53;7391807;19;1846;-39
2023/09/18 05:36:40;;;;;;;;;;;;;;;24.06;48.69;101505.72;7393636;19;1533;-38
2023/09/18 05:39:11;;;;;;;;;;;;;;;24.15;48.75;101518.31;7389917;19;1494;-38
2023/09/18 05:41:42;;;;;;;;;;;;;;;24.19;48.89;101514.31;7393725;19;1565;-38
2023/09/18 05:44:10;;;;;;;;;;;;;;;24.14;49.19;101512.06;7395393;19;1542;-39
2023/09/18 05:46:38;;;;;;;;;;;;;;;24.09;49.46;101514.34;7393242;19;1558;-38
2023/09/18 05:49:07;;;;;;;;;;;;;;;23.53;50.07;101491.00;7393063;19;1469;-38
2023/09/18 05:51:35;;;;;;;;;;;;;;;24.01;50.19;101533.16;7396972;19;1140;-38
2023/09/18 05:54:04;;;;;;;;;;;;;;;24.07;50.13;101527.16;7391821;19;1856;-38
2023/09/18 05:56:32;;;;;;;;;;;;;;;24.13;50.03;101517.63;7394560;19;1558;-38
2023/09/18 05:59:03;;;;;;;;;;;;;;;24.15;50.41;101513.78;7394320;19;1528;-38
2023/09/18 06:01:32;;;;;;;;;;;;;;;24.17;50.37;101511.78;7394848;19;1382;-38
2023/09/18 06:04:03;;;;;;;;;;;;;;;24.14;50.39;101528.28;7393985;19;1895;-38
2023/09/18 06:06:31;;;;;;;;;;;;;;;24.22;50.57;101528.38;7394784;19;1495;-38
2023/09/18 06:09:00;;;;;;;;;;;;;;;24.21;50.45;101501.47;7394112;19;1932;-38
2023/09/18 06:11:28;;;;;;;;;;;;;;;24.28;50.47;101524.22;7393510;19;1396;-39
2023/09/18 06:13:56;;;;;;;;;;;;;;;24.39;50.52;101525.84;7391654;19;1966;-38
2023/09/18 06:16:27;;;;;;;;;;;;;;;24.46;50.52;101520.69;7390789;19;1516;-38
2023/09/18 06:18:55;;;;;;;;;;;;;;;24.38;50.77;101522.28;7393074;19;1553;-38
2023/09/18 06:21:24;;;;;;;;;;;;;;;24.39;50.86;101528.53;7400443;19;1596;-38
2023/09/18 06:23:52;;;;;;;;;;;;;;;24.34;50.98;101530.88;7400674;19;1581;-38
2023/09/18 06:26:21;;;;;;;;;;;;;;;24.41;51.12;101523.81;7398427;19;1532;-38
2023/09/18 06:28:51;;;;;;;;;;;;;;;24.49;50.73;101521.22;7401481;19;1486;-38
2023/09/18 06:31:19;;;;;;;;;;;;;;;24.56;50.68;101532.31;7402033;19;1625;-38
2023/09/18 06:33:50;;;;;;;;;;;;;;;24.44;51.25;101518.13;7398707;19;1849;-38
2023/09/18 06:36:19;;;;;;;;;;;;;;;24.52;51.14;101536.31;7399198;19;1559;-38
2023/09/18 06:38:47;;;;;;;;;;;;;;;24.50;51.27;101533.75;7397450;19;1472;-38
2023/09/18 06:41:15;;;;;;;;;;;;;;;24.07;50.61;101445.25;7399493;19;1428;-38
2023/09/18 06:43:44;;;;;;;;;;;;;;;24.66;50.76;101522.25;7399928;19;1672;-38
2023/09/18 06:46:12;;;;;;;;;;;;;;;24.61;50.87;101528.13;7401434;19;1542;-38
2023/09/18 06:48:40;;;;;;;;;;;;;;;24.67;50.81;101523.09;7400410;19;1481;-38
2023/09/18 06:51:11;;;;;;;;;;;;;;;24.70;50.83;101525.50;7402353;19;1094;-38
2023/09/18 06:53:39;;;;;;;;;;;;;;;24.67;50.78;101529.38;7399800;19;1834;-38
2023/09/18 06:56:09;;;;;;;;;;;;;;;24.59;51.27;101522.03;7399696;19;1949;-38
2023/09/18 06:58:37;;;;;;;;;;;;;;;24.72;51.00;101554.09;7396794;19;1855;-38
2023/09/18 07:01:06;;;;;;;;;;;;;;;24.60;51.33;101534.53;7400858;19;1897;-38
2023/09/18 07:03:36;;;;;;;;;;;;;;;24.61;51.25;101521.84;7399220;19;1725;-38
2023/09/18 07:06:04;;;;;;;;;;;;;;;24.83;50.71;101515.16;7401186;19;1582;-38
2023/09/18 07:08:36;;;;;;;;;;;;;;;24.74;50.87;101516.91;7399803;19;1833;-38
2023/09/18 07:11:04;;;;;;;;;;;;;;;24.81;50.99;101519.88;7396244;19;1528;-38
2023/09/18 07:13:32;;;;;;;;;;;;;;;24.77;50.90;101529.28;7396504;19;1846;-38
2023/09/18 07:16:01;;;;;;;;;;;;;;;24.84;51.04;101527.66;7396701;19;1835;-38
2023/09/18 07:18:29;;;;;;;;;;;;;;;24.77;50.80;101524.75;7399913;19;1531;-38
2023/09/18 07:20:57;;;;;;;;;;;;;;;24.89;50.77;101522.66;7399760;19;1576;-38
2023/09/18 07:23:25;;;;;;;;;;;;;;;24.84;51.61;101527.66;7400134;19;1539;-39
2023/09/18 07:25:57;;;;;;;;;;;;;;;24.85;51.11;101515.84;7401186;19;1553;-38
2023/09/18 07:28:26;;;;;;;;;;;;;;;24.86;51.32;101525.66;7400221;19;1887;-38
2023/09/18 07:30:54;;;;;;;;;;;;;;;24.84;51.74;101535.78;7398073;19;1641;-38
2023/09/18 07:33:23;;;;;;;;;;;;;;;24.94;50.60;101525.72;7397206;19;1841;-38
2023/09/18 07:35:51;;;;;;;;;;;;;;;24.95;50.98;101522.00;7398855;19;1828;-38
2023/09/18 07:38:19;;;;;;;;;;;;;;;24.97;50.58;101513.75;7399231;19;1526;-38
2023/09/18 07:40:48;;;;;;;;;;;;;;;24.99;50.50;101523.41;7399148;19;1501;-38
2023/09/18 07:43:19;;;;;;;;;;;;;;;24.93;51.06;101521.31;7400407;19;1133;-38
2023/09/18 07:45:48;;;;;;;;;;;;;;;24.84;50.92;101513.28;7399515;19;1802;-38
2023/09/18 07:48:19;;;;;;;;;;;;;;;24.82;51.32;101521.56;7379552;19;1854;-41
2023/09/18 07:50:49;;;;;;;;;;;;;;;25.00;50.67;101522.38;7398708;19;1620;-41
2023/09/18 07:53:18;;;;;;;;;;;;;;;24.99;50.32;101523.41;7397536;19;1846;-41
2023/09/18 07:55:46;;;;;;;;;;;;;;;24.94;50.92;101524.88;7397640;19;1718;-41
2023/09/18 07:58:14;;;;;;;;;;;;;;;24.89;50.74;101521.78;7399106;19;1516;-41
2023/09/18 08:00:45;;;;;;;;;;;;;;;25.10;50.29;101507.91;7398747;19;1413;-41
2023/09/18 08:03:13;;;;;;;;;;;;;;;24.91;50.29;101528.75;7397998;19;1582;-41
2023/09/18 08:05:42;;;;;;;;;;;;;;;24.88;50.50;101525.50;7398087;19;1309;-41
2023/09/18 08:08:10;;;;;;;;;;;;;;;24.80;49.81;101520.88;7397176;19;1550;-41
2023/09/18 08:10:41;;;;;;;;;;;;;;;24.89;50.25;101529.88;7395845;19;1553;-41
2023/09/18 08:13:09;;;;;;;;;;;;;;;24.88;48.89;101512.81;7391743;19;1842;-41
2023/09/18 08:15:37;;;;;;;;;;;;;;;25.00;50.25;101519.66;7397142;19;1617;-41
2023/09/18 08:18:08;;;;;;;;;;;;;;;25.04;49.90;101505.84;7395371;19;1644;-41
2023/09/18 08:20:37;;;;;;;;;;;;;;;25.10;50.05;101499.78;7393712;19;1826;-41
2023/09/18 08:23:06;;;;;;;;;;;;;;;25.04;49.56;101503.13;7398443;19;1555;-41
2023/09/18 08:25:34;;;;;;;;;;;;;;;25.08;49.67;101507.22;7397630;19;1565;-41
2023/09/18 08:28:03;;;;;;;;;;;;;;;25.09;48.61;101496.25;7396737;19;1553;-41
2023/09/18 08:30:31;;;;;;;;;;;;;;;25.16;48.69;101497.28;7396014;19;1378;-42
2023/09/18 08:32:59;;;;;;;;;;;;;;;24.96;49.51;101475.00;7395792;19;1400;-40
2023/09/18 08:35:30;;;;;;;;;;;;;;;24.99;49.49;101496.34;7395269;19;1538;-40
2023/09/18 08:37:59;;;;;;;;;;;;;;;25.11;49.83;101485.22;7396659;19;1444;-40
2023/09/18 08:40:27;;;;;;;;;;;;;;;25.19;48.80;101491.56;7397247;19;1715;-40
2023/09/18 08:42:59;;;;;;;;;;;;;;;25.01;50.05;101502.44;7394391;19;1550;-41
2023/09/18 08:45:30;;;;;;;;;;;;;;;24.84;50.68;101503.31;7395409;19;1962;-40
2023/09/18 08:47:58;;;;;;;;;;;;;;;24.76;49.71;101485.16;7378318;19;1565;-40
2023/09/18 08:50:27;;;;;;;;;;;;;;;24.80;50.56;101499.22;7395451;19;1475;-40
2023/09/18 08:52:58;;;;;;;;;;;;;;;24.77;50.35;101497.69;7395442;19;1645;-40
2023/09/18 08:55:26;;;;;;;;;;;;;;;24.70;50.44;101482.22;7394033;19;1838;-40
2023/09/18 08:57:55;;;;;;;;;;;;;;;24.69;49.96;101484.09;7393045;19;1505;-40
2023/09/18 09:00:24;;;;;;;;;;;;;;;24.90;48.10;101475.63;7395454;19;1533;-40
2023/09/18 09:02:54;;;;;;;;;;;;;;;24.96;48.45;101479.56;7393955;19;1601;-41
2023/09/18 09:05:22;;;;;;;;;;;;;;;24.90;48.75;101481.03;7395702;19;1545;-38
2023/09/18 09:07:51;;;;;;;;;;;;;;;25.00;48.02;101489.06;7395745;19;1513;-38
2023/09/18 09:10:22;;;;;;;;;;;;;;;24.99;48.88;101480.09;7389475;19;1461;-40
2023/09/18 09:12:53;;;;;;;;;;;;;;;24.86;49.39;101466.13;7394613;19;1537;-41
2023/09/18 09:15:21;;;;;;;;;;;;;;;24.93;49.31;101464.50;7392592;19;1849;-40
2023/09/18 09:17:50;;;;;;;;;;;;;;;24.98;49.17;101464.84;7394550;19;1613;-40
2023/09/18 09:20:18;;;;;;;;;;;;;;;25.03;48.35;101459.00;7395285;19;1461;-41
2023/09/18 09:22:47;;;;;;;;;;;;;;;24.93;48.96;101448.28;7395681;19;1859;-41
2023/09/18 09:25:31;;;;;;;;;;;;;;;24.99;48.42;101463.88;7395253;19;1794;-41
2023/09/18 09:28:00;;;;;;;;;;;;;;;24.92;49.11;101457.38;7393305;19;1761;-38
2023/09/18 09:30:30;;;;;;;;;;;;;;;24.89;46.63;101494.72;7392129;19;1568;-39
2023/09/18 09:32:58;;;;;;;;;;;;;;;24.80;48.51;101445.97;7389841;19;1596;-38
2023/09/18 09:35:29;;;;;;;;;;;;;;;24.65;49.66;101444.84;7386882;19;1912;-38
2023/09/18 09:38:00;;;;;;;;;;;;;;;24.63;49.61;101437.88;7392659;19;1637;-38
2023/09/18 09:40:32;;;;;;;;;;;;;;;24.75;49.48;101452.84;7395128;19;1620;-38
2023/09/18 09:43:04;;;;;;;;;;;;;;;24.66;48.33;101449.25;7391465;19;1918;-37
2023/09/18 09:45:35;;;;;;;;;;;;;;;24.71;48.79;101455.03;7394161;19;1912;-37
2023/09/18 09:48:04;;;;;;;;;;;;;;;24.72;49.10;101440.50;7377779;19;1840;-38
2023/09/18 09:50:32;;;;;;;;;;;;;;;24.71;49.06;101440.66;7393479;19;1582;-38
2023/09/18 09:53:02;;;;;;;;;;;;;;;24.75;47.77;101439.31;7393475;19;1498;-38
2023/09/18 09:55:34;;;;;;;;;;;;;;;24.87;47.97;101421.84;7395155;19;1843;-38
2023/09/18 09:58:03;;;;;;;;;;;;;;;24.80;48.70;101426.19;7398218;19;1439;-38
2023/09/18 10:00:36;;;;;;;;;;;;;;;24.70;48.54;101420.03;7401313;19;1576;-38
2023/09/18 10:03:08;;;;;;;;;;;;;;;24.91;46.86;101434.06;7401457;19;1519;-38
2023/09/18 10:05:38;;;;;;;;;;;;;;;24.84;48.71;101432.97;7400040;19;1567;-38
2023/09/18 10:08:10;;;;;;;;;;;;;;;24.90;47.32;101426.94;7401090;19;1471;-38
2023/09/18 10:10:42;;;;;;;;;;;;;;;24.80;48.05;101418.06;7400417;19;1481;-37
2023/09/18 10:13:12;;;;;;;;;;;;;;;24.79;48.21;101413.69;7392610;19;1515;-38
2023/09/18 10:15:43;;;;;;;;;;;;;;;24.69;48.45;101402.09;7398033;19;1824;-38
2023/09/18 10:18:19;;;;;;;;;;;;;;;24.73;47.24;101408.88;7399008;19;1504;-38
2023/09/18 10:20:49;;;;;;;;;;;;;;;24.73;48.26;101401.63;7398039;19;1605;-38
2023/09/18 10:23:24;;;;;;;;;;;;;;;24.71;48.26;101408.19;7399716;19;1486;-38
2023/09/18 10:25:57;;;;;;;;;;;;;;;24.89;47.46;101402.72;7398088;19;1641;-44
2023/09/18 10:28:30;;;;;;;;;;;;;;;25.01;47.75;101396.06;7398680;19;1584;-45
2023/09/18 10:31:00;;;;;;;;;;;;;;;24.90;47.41;101389.06;7399578;19;1594;-44
2023/09/18 10:33:28;;;;;;;;;;;;;;;24.86;47.77;101387.69;7398907;19;2005;-45
2023/09/18 10:35:58;;;;;;;;;;;;;;;24.96;47.76;101396.53;7394376;19;1837;-46
2023/09/18 10:38:27;;;;;;;;;;;;;;;24.93;47.00;101388.75;7397084;19;1657;-38
2023/09/18 10:41:00;;;;;;;;;;;;;;;24.80;48.04;101397.28;7400505;19;1581;-38
2023/09/18 10:43:28;;;;;;;;;;;;;;;24.77;48.45;101400.31;7398323;19;1768;-38
2023/09/18 10:45:57;;;;;;;;;;;;;;;24.76;48.42;101392.34;7400921;19;1554;-38
2023/09/18 10:48:25;;;;;;;;;;;;;;;24.77;47.30;101383.22;7381438;19;1478;-38
2023/09/18 10:50:54;;;;;;;;;;;;;;;24.95;47.74;101383.19;7396442;19;1814;-38
2023/09/18 10:53:23;;;;;;;;;;;;;;;24.89;47.13;101391.91;7397619;19;1282;-38
2023/09/18 10:55:52;;;;;;;;;;;;;;;24.70;48.31;101377.59;7398060;19;1850;-38
2023/09/18 10:58:29;;;;;;;;;;;;;;;24.68;48.35;101367.94;7396532;19;1887;-38
2023/09/18 11:00:58;;;;;;;;;;;;;;;24.66;48.41;101373.50;7398122;19;1672;-38
2023/09/18 11:03:26;;;;;;;;;;;;;;;24.74;47.46;101368.16;7397301;19;1553;-38
2023/09/18 11:06:09;;;;;;;;;;;;;;;24.78;47.87;101366.81;7396855;19;1406;-37
2023/09/18 11:08:37;;;;;;;;;;;;;;;24.81;47.93;101362.97;7395464;19;1418;-38
2023/09/18 11:11:09;;;;;;;;;;;;;;;24.84;47.28;101370.75;7398862;19;1934;-37
2023/09/18 11:13:41;;;;;;;;;;;;;;;24.78;47.57;101363.28;7396243;19;1558;-38
2023/09/18 11:16:38;;;;;;;;;;;;;;;24.89;48.10;101346.78;7393396;19;1965;-38
2023/09/18 11:19:13;;;;;;;;;;;;;;;24.84;48.00;101342.88;7397134;19;1506;-38
2023/09/18 11:21:42;;;;;;;;;;;;;;;24.91;48.17;101344.78;7397370;19;1530;-37
2023/09/18 11:24:17;;;;;;;;;;;;;;;24.92;48.50;101354.56;7397736;19;1490;-37
2023/09/18 11:26:47;;;;;;;;;;;;;;;24.89;48.22;101349.50;7397237;19;1478;-38
2023/09/18 11:29:21;;;;;;;;;;;;;;;24.92;47.88;101364.56;7396452;19;1498;-37
2023/09/18 11:31:51;;;;;;;;;;;;;;;25.01;47.36;101348.19;7395573;19;1392;-38
2023/09/18 11:34:23;;;;;;;;;;;;;;;24.90;47.99;101342.22;7396630;19;1859;-37
2023/09/18 11:36:53;;;;;;;;;;;;;;;24.85;47.81;101347.25;7394687;19;1503;-38
2023/09/18 11:39:37;;;;;;;;;;;;;;;24.90;48.10;101351.19;7392477;19;1552;-38
2023/09/18 11:42:09;;;;;;;;;;;;;;;24.78;48.09;101344.34;7395111;19;1573;-37
2023/09/18 11:44:46;;;;;;;;;;;;;;;24.78;47.58;101360.56;7395507;19;1501;-38
2023/09/18 11:47:17;;;;;;;;;;;;;;;24.33;47.39;101261.56;7381983;19;1424;-38
2023/09/18 11:49:50;;;;;;;;;;;;;;;24.74;48.04;101351.09;7394611;19;1462;-38
2023/09/18 11:52:19;;;;;;;;;;;;;;;24.82;47.71;101337.59;7394783;19;1399;-37
2023/09/18 11:54:47;;;;;;;;;;;;;;;24.90;47.29;101331.41;7396290;19;1845;-38
2023/09/18 11:57:16;;;;;;;;;;;;;;;24.93;47.56;101328.34;7397337;19;1455;-38
2023/09/18 11:59:48;;;;;;;;;;;;;;;24.92;48.28;101330.22;7397122;19;1621;-38
2023/09/18 12:02:20;;;;;;;;;;;;;;;24.84;47.97;101335.59;7396811;19;1820;-37
2023/09/18 12:04:49;;;;;;;;;;;;;;;24.82;47.54;101332.19;7396201;19;1747;-37
2023/09/18 12:07:19;;;;;;;;;;;;;;;24.74;48.11;101327.59;7392279;19;1553;-37
2023/09/18 12:09:47;;;;;;;;;;;;;;;24.21;48.35;101242.91;7394291;19;1585;-38
2023/09/18 12:12:17;;;;;;;;;;;;;;;24.75;47.97;101304.94;7394862;19;1413;-37
2023/09/18 12:14:49;;;;;;;;;;;;;;;24.79;47.86;101324.41;7393197;19;1844;-37
2023/09/18 12:17:18;;;;;;;;;;;;;;;24.77;47.10;101299.34;7395407;19;1187;-37
2023/09/18 12:19:55;;;;;;;;;;;;;;;24.81;47.74;101296.19;7395784;19;1898;-38
2023/09/18 12:22:27;;;;;;;;;;;;;;;24.91;47.66;101298.78;7395095;19;1986;-38
2023/09/18 12:24:56;;;;;;;;;;;;;;;24.94;46.71;101308.41;7395812;19;1491;-37
2023/09/18 12:27:26;;;;;;;;;;;;;;;24.96;47.24;101304.53;7389788;19;1510;-38
2023/09/18 12:29:57;;;;;;;;;;;;;;;24.43;46.85;101240.66;7391022;19;1546;-38
2023/09/18 12:32:26;;;;;;;;;;;;;;;24.80;46.58;101294.47;7392310;19;1388;-38
2023/09/18 12:34:56;;;;;;;;;;;;;;;24.84;47.14;101308.53;7389195;19;1857;-38
2023/09/18 12:37:24;;;;;;;;;;;;;;;24.76;47.38;101298.53;7391732;19;1465;-37
2023/09/18 12:39:53;;;;;;;;;;;;;;;24.82;46.81;101294.31;7394911;19;1579;-38
2023/09/18 12:42:21;;;;;;;;;;;;;;;24.81;47.42;101293.50;7389553;19;1511;-38
2023/09/18 12:44:51;;;;;;;;;;;;;;;24.79;47.50;101283.84;7393226;19;1627;-38
2023/09/18 12:47:22;;;;;;;;;;;;;;;24.77;47.78;101289.41;7388359;19;1622;-38
2023/09/18 12:49:51;;;;;;;;;;;;;;;24.84;47.54;101286.91;7387466;19;1521;-38
2023/09/18 12:52:24;;;;;;;;;;;;;;;24.82;47.20;101278.09;7394950;19;1803;-38
2023/09/18 12:54:54;;;;;;;;;;;;;;;24.78;47.65;101282.13;7390906;19;1833;-38
2023/09/18 12:57:22;;;;;;;;;;;;;;;24.75;47.92;101272.50;7393913;19;1846;-55
2023/09/18 12:59:53;;;;;;;;;;;;;;;24.76;47.59;101263.34;7393096;19;1512;-37